Latest Coastal Weather Observations for Esperance

IDW60701

Issued at 6:15 pm WST Wednesday 16 April 2014 (issued every 10 minutes, with the page automatically refreshed every 10 minutes)

About coastal observations | Map of coastal stations | Coastal observations for WA | Marine services | Other Formats
Station Details ID: 009789 Name: ESPERANCE Lat: -33.83 Lon: 121.89 Height: 25.0 m
Data from the previous 72 hours. | See also: Recent months at Esperance
Date/Time
WST
Temp

°C
Wind Pressure Rain
since 9am
mm
Weather Cloud Vis
km
Sea
Height
m
Swell
Dir
 
Speed
knots
Gust
knots
hPa Trend Height
m
Period
s
Dir
16/06:00pm 18.2 SE 7 10 1019.9 F 0.0 Haze Mostly clear 15 - - - -
16/05:30pm 18.4 SE 6 9 1020.2 - 0.0 - - 10 - - - -
16/05:00pm 18.8 S 6 10 1019.8 - 0.0 - - 10 - - - -
16/04:30pm 19.2 S 7 10 1019.7 - 0.0 - - 10 - - - -
16/04:00pm 19.7 SSE 9 11 1019.9 - 0.0 - Mostly clear 10 - - - -
16/03:30pm 19.8 SSE 9 11 1020.1 - 0.0 - Mostly clear 10 - - - -
16/03:00pm 20.0 SE 10 12 1020.0 F 0.0 Haze Mostly clear 15 - - - -
16/02:30pm 20.0 SE 10 13 1020.2 - 0.0 - Mostly clear 10 - - - -
16/02:00pm 20.2 SE 11 12 1020.4 - 0.0 - Partly cloudy 10 - - - -
16/01:30pm 19.8 SE 10 13 1020.6 - 0.0 - Mostly clear 10 - - - -
16/01:00pm 20.0 SE 10 13 1020.6 - 0.0 - Mostly clear 10 - - - -
16/12:30pm 20.5 ESE 10 12 1021.3 - 0.0 - Mostly clear 10 - - - -
16/12:00pm 21.0 SSE 7 11 1021.7 F 0.0 Haze Mostly cloudy 18 - - - -
16/11:30am 20.9 WSW 5 9 1022.4 - 0.0 - Mostly clear 10 - - - -
16/11:00am 20.4 SW 4 6 1022.7 - 0.0 - Mostly clear 10 - - - -
16/10:30am 20.5 WNW 4 6 1023.0 - 0.0 - Mostly clear 10 - - - -
16/10:00am 20.1 WSW 3 7 1023.0 - 0.0 - Mostly clear 10 - - - -
16/09:30am 19.3 SSW 4 7 1023.3 - 0.0 - Mostly clear 10 - - - -
16/09:00am 19.1 S 4 6 1023.2 R 0.0 Haze Cloudy 15 - - - -
16/08:30am 18.7 S 3 5 1023.3 - 0.0 - Mostly clear 10 - - - -
16/08:00am 17.7 S 6 10 1023.1 - 0.0 - Mostly clear 9 - - - -
16/07:30am 18.1 S 5 8 1022.9 - 0.0 - Mostly clear 9 - - - -
16/07:00am 17.7 SSW 3 5 1022.3 - 0.0 - Mostly clear 9 - - - -
16/06:30am 17.5 SSW 4 8 1022.3 - 0.0 - Partly cloudy 9 - - - -
16/06:00am 17.5 SSW 5 10 1022.0 R 0.0 Distant precip. Mostly cloudy 8 - - - -
16/05:42am 17.9 S 7 9 1021.9 - 0.0 - Partly cloudy 7 - - - -
16/05:30am 18.1 S 5 7 1021.9 - 0.0 - Partly cloudy 9 - - - -
16/05:00am 18.2 S 5 7 1021.6 - 0.0 - Partly cloudy 10 - - - -
16/04:30am 18.3 SSW 7 11 1021.6 - 0.0 - Partly cloudy 10 - - - -
16/04:00am 18.3 SSW 7 11 1021.3 - 0.0 - Partly cloudy 9 - - - -
16/03:30am 18.3 SSW 6 8 1021.1 - 0.0 - Partly cloudy 10 - - - -
16/03:00am 18.4 SSW 6 9 1020.9 F 0.0 - Mostly cloudy 10 - - - -
16/02:30am 18.4 SSW 6 9 1021.1 - 0.0 - Cloudy 10 - - - -
16/02:00am 18.5 SSW 7 11 1021.2 - 0.0 - Cloudy 10 - - - -
16/01:30am 18.5 SSW 6 11 1021.5 - 0.0 - Partly cloudy 10 - - - -
16/01:00am 18.6 SSW 7 11 1021.4 - 0.0 - Partly cloudy 10 - - - -
16/12:30am 18.5 SSW 8 13 1021.7 - 0.0 - Cloudy 10 - - - -
16/12:07am 18.4 S 8 13 1021.4 - 0.0 - Partly cloudy 10 - - - -
16/12:00am 18.5 S 9 14 1021.3 R 0.0 - Cloudy 10 - - - -
 
Date/Time
WST
Temp

°C
Wind Pressure Rain
since 9am
mm
Weather Cloud Vis
km
Sea
Height
m
Swell
Dir
 
Speed
knots
Gust
knots
hPa Trend Height
m
Period
s
Dir
15/11:36pm 18.8 SSW 9 13 1021.2 - 0.0 - Partly cloudy 10 - - - -
15/11:30pm 18.7 SSW 8 13 1021.1 - 0.0 - Partly cloudy 10 - - - -
15/11:00pm 17.6 SSW 7 10 1021.2 - 0.0 - Partly cloudy 10 - - - -
15/10:30pm 17.5 WNW 5 6 1021.4 - 0.0 - Partly cloudy 10 - - - -
15/10:00pm 17.7 W 4 5 1021.3 - 0.0 - - 10 - - - -
15/09:30pm 18.2 W 4 5 1021.3 - 0.0 - - 10 - - - -
15/09:00pm 17.9 W 3 4 1021.1 R 0.0 - - 10 - - - -
15/08:30pm 18.3 CALM 0 2 1020.8 - 0.0 - - 10 - - - -
15/08:00pm 18.5 SW 4 5 1020.5 - 0.0 - - 10 - - - -
15/07:30pm 19.0 S 5 8 1020.4 - 0.0 - - 10 - - - -
15/07:00pm 19.5 S 10 16 1019.9 - 0.0 - - 10 - - - -
15/06:30pm 19.4 SSW 7 9 1019.8 - 0.0 - - 10 - - - -
15/06:00pm 19.6 SSW 6 9 1018.9 R 0.0 Haze Mostly clear 18 - - - -
15/05:30pm 20.1 SSW 7 10 1018.9 - 0.0 - - 10 - - - -
15/05:00pm 20.6 SSW 10 13 1018.4 - 0.0 - - 10 - - - -
15/04:30pm 21.1 S 11 17 1018.3 - 0.0 - - 10 - - - -
15/04:00pm 21.6 SSW 13 19 1018.0 - 0.0 - Mostly clear 10 - - - -
15/03:30pm 22.2 SSW 13 19 1018.0 - 0.0 - Mostly clear 10 - - - -
15/03:00pm 22.9 SSW 13 21 1017.7 R 0.0 Haze Mostly clear 15 - - - -
15/02:30pm 22.6 SW 15 24 1017.5 - 0.0 - Mostly clear 10 - - - -
15/02:00pm 23.0 SSW 14 21 1017.1 - 0.0 - - 10 - - - -
15/01:36pm 22.5 SSW 15 26 1016.7 - 0.0 - - 10 - - - -
15/01:30pm 23.0 SSW 14 22 1016.7 - 0.0 - - 10 - - - -
15/01:00pm 24.6 SSW 10 17 1016.3 - 0.0 - - 10 - - - -
15/12:30pm 25.3 SW 9 12 1016.7 - 0.0 - - 10 - - - -
15/12:00pm 25.0 W 9 14 1017.0 F 0.0 Haze Clear 20 - - - -
15/11:30am 25.3 WSW 9 13 1017.7 - 0.0 - - 10 - - - -
15/11:00am 24.8 WSW 10 15 1017.9 - 0.0 - - 10 - - - -
15/10:30am 24.6 SW 12 17 1018.5 - 0.0 - - 10 - - - -
15/10:00am 27.6 WNW 18 25 1018.3 - 0.0 - - 10 - - - -
15/09:30am 26.9 NW 20 31 1018.7 - 0.0 - - 10 - - - -
15/09:00am 25.8 NNW 19 30 1018.4 F 0.0 Fine Mostly clear 30 - - - -
15/08:30am 24.6 NNW 20 33 1018.3 - 0.0 - - 10 - - - -
15/08:00am 23.2 NNW 21 29 1018.1 - 0.0 - - 10 - - - -
15/07:30am 21.9 NNW 17 25 1018.2 - 0.0 - - 10 - - - -
15/07:00am 21.0 NNW 18 25 1017.6 - 0.0 - - 10 - - - -
15/06:30am 20.3 N 16 24 1017.5 - 0.0 - - 10 - - - -
15/06:00am 20.4 N 15 21 1017.8 F 0.0 Fine Mostly clear 30 - - - -
15/05:30am 20.4 N 17 26 1017.7 - 0.0 - - 10 - - - -
15/05:00am 20.6 N 19 26 1017.6 - 0.0 - - 10 - - - -
15/04:30am 20.6 N 17 24 1017.7 - 0.0 - - 10 - - - -
15/04:00am 20.7 N 15 25 1017.6 - 0.0 - - 10 - - - -
15/03:51am 20.7 N 15 25 1017.5 - 0.0 - - 10 - - - -
15/03:30am 20.5 N 14 21 1017.5 - 0.0 - - 10 - - - -
15/03:00am 20.7 N 11 15 1017.8 R 0.0 - - 10 - - - -
15/02:30am 21.2 N 13 19 1018.1 - 0.0 - Partly cloudy 10 - - - -
15/02:00am 21.6 N 17 23 1017.6 - 0.0 - Partly cloudy 10 - - - -
15/01:30am 21.9 N 17 23 1017.9 - 0.0 - - 10 - - - -
15/01:00am 22.2 N 17 23 1017.9 - 0.0 - - 10 - - - -
15/12:30am 22.6 N 17 23 1018.0 - 0.0 - - 10 - - - -
15/12:00am 22.8 N 17 22 1017.9 F 0.0 - - 10 - - - -
 
Date/Time
WST
Temp

°C
Wind Pressure Rain
since 9am
mm
Weather Cloud Vis
km
Sea
Height
m
Swell
Dir
 
Speed
knots
Gust
knots
hPa Trend Height
m
Period
s
Dir
14/11:30pm 23.4 N 16 21 1018.2 - 0.0 - - 10 - - - -
14/11:00pm 23.5 N 15 21 1018.2 - 0.0 - - 10 - - - -
14/10:30pm 23.9 N 17 22 1018.7 - 0.0 - - 10 - - - -
14/10:00pm 24.5 N 16 22 1019.0 - 0.0 - - 10 - - - -
14/09:30pm 24.9 N 13 17 1019.6 - 0.0 - Partly cloudy 10 - - - -
14/09:00pm 25.0 N 13 18 1019.4 F 0.0 - Partly cloudy 10 - - - -
14/08:30pm 25.4 N 13 19 1019.2 - 0.0 - - 10 - - - -
14/08:00pm 25.9 NNE 12 17 1019.2 - 0.0 - Partly cloudy 10 - - - -
14/07:30pm 26.2 NNE 11 18 1019.2 - 0.0 - - 10 - - - -
14/07:00pm 26.4 NNE 11 15 1019.1 - 0.0 - - 10 - - - -
14/06:30pm 26.3 NNE 7 9 1019.0 - 0.0 - - 10 - - - -
14/06:00pm 27.6 NNE 8 10 1018.7 F 0.0 Fine Mostly clear 30 - - - -
14/05:30pm 28.7 N 9 12 1018.6 - 0.0 - - 10 - - - -
14/05:00pm 30.1 N 9 12 1018.4 - 0.0 - - 10 - - - -
14/04:30pm 31.0 N 9 12 1018.5 - 0.0 - - 10 - - - -
14/04:02pm 31.2 N 9 13 1018.7 - 0.0 - Partly cloudy 10 - - - -
14/04:00pm 31.3 N 9 13 1018.6 - 0.0 - Partly cloudy 10 - - - -
14/03:30pm 31.7 NNE 7 11 1018.9 - 0.0 - - 10 - - - -
14/03:00pm 31.6 N 10 15 1019.0 F 0.0 Fine Mostly clear 40 - - - -
14/02:30pm 31.6 N 8 13 1019.3 - 0.0 - - 10 - - - -
14/02:00pm 31.5 N 11 17 1019.3 - 0.0 - Partly cloudy 10 - - - -
14/01:30pm 31.3 N 8 15 1019.7 - 0.0 - - 10 - - - -
14/01:00pm 31.1 N 8 13 1020.0 - 0.0 - - 10 - - - -
14/12:30pm 30.4 N 9 16 1020.5 - 0.0 - - 10 - - - -
14/12:00pm 29.9 N 10 13 1021.1 F 0.0 Fine Mostly clear 40 - - - -
14/11:30am 28.6 N 10 15 1021.8 - 0.0 - - 10 - - - -
14/11:00am 27.8 N 10 13 1022.2 - 0.0 - - 10 - - - -
14/10:30am 27.2 N 10 15 1022.7 - 0.0 - - 10 - - - -
14/10:00am 26.2 N 10 14 1022.9 - 0.0 - - 10 - - - -
14/09:30am 24.7 N 9 13 1023.2 - 0.0 - - 10 - - - -
14/09:00am 23.2 N 11 14 1023.2 F 0.0 Fine Mostly clear 25 - - - -
14/08:30am 21.4 N 11 16 1023.3 - 0.0 - - 10 - - - -
14/08:00am 20.0 N 7 9 1023.2 - 0.0 - - 10 - - - -
14/07:30am 18.1 NNE 8 12 1022.9 - 0.0 - - 10 - - - -
14/07:00am 16.6 N 8 11 1022.6 - 0.0 - - 10 - - - -
14/06:30am 16.0 N 5 8 1022.7 - 0.0 - - 10 - - - -
14/06:00am 16.4 N 6 9 1022.6 F 0.0 Fine Mostly clear 30 - - - -
14/05:30am 17.1 N 8 12 1022.4 - 0.0 - - 10 - - - -
14/05:00am 17.0 NNE 6 8 1022.4 - 0.0 - - 10 - - - -
14/04:30am 17.3 NNE 7 8 1022.4 - 0.0 - Partly cloudy 10 - - - -
14/04:00am 17.4 NNE 7 9 1022.1 - 0.0 - - 10 - - - -
14/03:30am 17.6 NE 5 8 1022.2 - 0.0 - Partly cloudy 10 - - - -
14/03:00am 18.1 N 8 12 1021.9 S 0.0 - Mostly clear 10 - - - -
14/02:30am 18.2 N 10 13 1021.9 - 0.0 - - 10 - - - -
14/02:00am 18.8 N 8 13 1021.9 - 0.0 - Partly cloudy 10 - - - -
14/01:30am 18.7 N 8 10 1022.1 - 0.0 - - 10 - - - -
14/01:00am 18.9 NNE 8 11 1021.9 - 0.0 - Partly cloudy 10 - - - -
14/12:30am 19.3 NNE 9 11 1022.3 - 0.0 - Partly cloudy 10 - - - -
14/12:00am 19.4 NNE 8 11 1022.2 R 0.0 - Partly cloudy 10 - - - -
 
Date/Time
WST
Temp

°C
Wind Pressure Rain
since 9am
mm
Weather Cloud Vis
km
Sea
Height
m
Swell
Dir
 
Speed
knots
Gust
knots
hPa Trend Height
m
Period
s
Dir
13/11:30pm 19.8 NNE 10 15 1022.2 - 0.0 - Partly cloudy 10 - - - -
13/11:00pm 20.0 NNE 10 14 1022.1 - 0.0 - Partly cloudy 10 - - - -
13/10:30pm 20.3 NNE 8 11 1022.3 - 0.0 - Partly cloudy 10 - - - -
13/10:00pm 19.7 NNE 5 7 1022.2 - 0.0 - Partly cloudy 10 - - - -
13/09:30pm 19.9 ENE 4 6 1022.4 - 0.0 - Partly cloudy 10 - - - -
13/09:00pm 20.2 ENE 6 9 1022.2 F 0.0 - - 10 - - - -
13/08:30pm 20.5 ENE 7 10 1022.5 - 0.0 - - 10 - - - -
13/08:00pm 20.1 E 5 7 1022.2 - 0.0 - - 10 - - - -
13/07:30pm 20.4 E 5 7 1022.6 - 0.0 - Partly cloudy 10 - - - -
13/07:00pm 20.5 ESE 5 7 1022.5 - 0.0 - Partly cloudy 10 - - - -
13/06:30pm 21.0 ESE 6 8 1022.2 - 0.0 - Partly cloudy 10 - - - -

Other Formats:

Comma delimited format used in spreadsheet applications
http://www.bom.gov.au/fwo/IDW60701/IDW60701.94638.axf

JavaScript Object Notation format (JSON) in row-major order
http://www.bom.gov.au/fwo/IDW60701/IDW60701.94638.json